createdAt,value
2022-09-03T00:03:23.011Z,6.26
2022-09-03T00:13:33.512Z,6.12
2022-09-03T00:23:41.584Z,5.97
2022-09-03T00:33:46.128Z,5.83
2022-09-03T00:44:21.734Z,5.70
2022-09-03T00:54:43.077Z,5.60
2022-09-03T01:04:45.160Z,5.47
2022-09-03T01:14:50.122Z,5.35
2022-09-03T01:25:08.171Z,5.26
2022-09-03T01:35:35.166Z,5.17
2022-09-03T01:45:51.314Z,5.10
2022-09-03T01:56:21.226Z,5.03
2022-09-03T02:06:23.596Z,5.01
2022-09-03T02:16:31.708Z,4.97
2022-09-03T02:26:34.305Z,4.90
2022-09-03T02:36:41.867Z,4.92
2022-09-03T02:46:48.643Z,4.87
2022-09-03T02:56:50.838Z,4.81
2022-09-03T03:06:53.028Z,4.72
2022-09-03T03:16:55.323Z,4.65
2022-09-03T03:27:00.485Z,4.54
2022-09-03T03:37:02.620Z,4.47
2022-09-03T03:47:06.185Z,4.47
2022-09-03T03:57:08.291Z,4.43
2022-09-03T04:07:10.468Z,4.34
2022-09-03T04:17:12.573Z,4.30
2022-09-03T04:27:14.739Z,4.28
2022-09-03T04:37:19.984Z,4.26
2022-09-03T04:47:22.174Z,4.34
2022-09-03T04:57:24.604Z,4.45
2022-09-03T05:07:29.603Z,4.55
2022-09-03T05:17:34.998Z,4.69
2022-09-03T05:27:39.402Z,4.91
2022-09-03T05:37:41.623Z,5.27
2022-09-03T05:47:43.864Z,5.73
2022-09-03T05:57:51.346Z,6.22
2022-09-03T06:07:53.519Z,6.72
2022-09-03T06:17:55.662Z,7.09
2022-09-03T06:27:58.096Z,7.55
2022-09-03T06:38:00.701Z,8.02
2022-09-03T06:48:03.122Z,8.45
2022-09-03T06:58:05.490Z,8.83
2022-09-03T07:08:08.061Z,9.26
2022-09-03T07:18:10.316Z,9.77
2022-09-03T07:28:12.460Z,10.23
2022-09-03T07:38:19.970Z,10.63
2022-09-03T07:48:22.276Z,11.42
2022-09-03T07:58:25.165Z,12.79
2022-09-03T08:08:27.602Z,14.15
2022-09-03T08:18:39.329Z,15.10
2022-09-03T08:28:43.218Z,16.24
2022-09-03T08:38:46.497Z,16.81
2022-09-03T08:48:48.770Z,16.98
2022-09-03T08:58:50.932Z,17.06
2022-09-03T09:09:03.723Z,17.17
2022-09-03T09:19:19.475Z,17.30
2022-09-03T09:29:21.675Z,17.47
2022-09-03T09:39:24.371Z,17.79
2022-09-03T09:49:49.840Z,18.06
2022-09-03T10:00:13.939Z,18.29
2022-09-03T10:10:21.192Z,18.58
2022-09-03T10:20:37.367Z,18.84
2022-09-03T10:31:07.224Z,19.24
2022-09-03T10:41:41.690Z,19.39
2022-09-03T10:51:56.421Z,19.71
2022-09-03T11:02:07.654Z,19.97
2022-09-03T11:12:22.134Z,20.20
2022-09-03T11:22:26.036Z,20.07
2022-09-03T11:32:55.732Z,19.96
2022-09-03T11:43:07.776Z,20.11
2022-09-03T11:53:16.482Z,20.14
2022-09-03T12:03:28.691Z,20.23
2022-09-03T12:13:56.719Z,20.53
2022-09-03T12:24:02.013Z,20.01
2022-09-03T12:34:16.560Z,19.77
2022-09-03T12:44:27.184Z,19.91
2022-09-03T12:54:29.777Z,20.00
2022-09-03T13:04:35.884Z,19.75
2022-09-03T13:14:47.423Z,19.58
2022-09-03T13:25:17.245Z,19.69
2022-09-03T13:35:38.574Z,20.40
2022-09-03T13:46:05.597Z,20.74
2022-09-03T13:56:28.126Z,20.26
2022-09-03T14:06:47.198Z,19.87
2022-09-03T14:16:58.198Z,19.66
2022-09-03T14:27:02.727Z,19.69
2022-09-03T14:37:18.644Z,19.76
2022-09-03T14:47:50.589Z,20.31
2022-09-03T14:58:01.703Z,20.51
2022-09-03T15:08:15.880Z,20.47
2022-09-03T15:18:43.986Z,20.08
2022-09-03T15:28:54.884Z,19.66
2022-09-03T15:39:07.910Z,19.06
2022-09-03T15:49:41.159Z,18.43
2022-09-03T16:00:04.462Z,17.88
2022-09-03T16:10:24.584Z,17.43
2022-09-03T16:20:38.729Z,17.05
2022-09-03T16:30:40.922Z,16.75
2022-09-03T16:40:45.808Z,16.55
2022-09-03T16:50:59.306Z,16.23
2022-09-03T17:01:28.774Z,15.85
2022-09-03T17:11:43.499Z,15.38
2022-09-03T17:21:59.826Z,14.92
2022-09-03T17:32:44.339Z,14.47
2022-09-03T17:42:52.544Z,14.02
2022-09-03T17:52:55.747Z,13.59
2022-09-03T18:03:24.515Z,13.29
2022-09-03T18:13:39.332Z,13.10
2022-09-03T18:24:18.969Z,12.98
2022-09-03T18:34:48.443Z,12.90
2022-09-03T18:45:48.836Z,12.78
2022-09-03T18:56:34.890Z,12.81
2022-09-03T19:07:31.652Z,12.61
2022-09-03T19:17:58.540Z,12.36
2022-09-03T19:28:33.102Z,12.04
2022-09-03T19:39:00.777Z,11.75
2022-09-03T19:49:35.233Z,11.47
2022-09-03T19:59:59.490Z,11.32
2022-09-03T20:10:24.754Z,11.33
2022-09-03T20:20:35.927Z,11.33
2022-09-03T20:30:56.645Z,11.38
2022-09-03T20:41:14.104Z,11.22
2022-09-03T20:51:34.844Z,10.97
2022-09-03T21:01:45.376Z,10.83
2022-09-03T21:12:01.898Z,10.73
2022-09-03T21:22:28.822Z,10.80
2022-09-03T21:32:55.097Z,10.92
2022-09-03T21:43:38.359Z,10.86
2022-09-03T21:53:46.478Z,10.69
2022-09-03T22:10:14.219Z,10.51
2022-09-03T22:20:24.278Z,10.40
2022-09-03T22:30:34.846Z,10.25
2022-09-03T22:40:52.551Z,10.12
2022-09-03T22:51:00.113Z,10.06
2022-09-03T23:01:25.895Z,10.00
2022-09-03T23:11:34.760Z,9.94
2022-09-03T23:21:43.322Z,9.89
2022-09-03T23:31:45.542Z,9.95
2022-09-03T23:42:06.190Z,10.09
2022-09-03T23:52:43.125Z,10.36
